Archival Weather

Joint Base Andrews

Camp Springs, Maryland (KADW)

Report from: Tuesday, February 27, 2024 11:55 PM EST
Current time: Wednesday, May 29, 2024 8:54 PM EDT

Current weather – Weather history – Daily summaries
Weather forecast

Temperature13.5°C (56.3°F)
Dew point11.7°C (53.1°F)
Winds 8 kts (4.1 m/s, 9.2 mph) South (180°)
Visibility10 mi. (16.1 km)
Clouds Ceiling: Broken clouds 1,400 ft. (427 m)
Broken clouds 2,000 ft. (610 m)
Altimeter29.79 in.Hg (1009 mB)
Precipitiation0.01 in. (0 mm)
Precip. events Rain began 3:56 AM
Rain ended 4:07 AM
Drizzle began 4:07 AM
Drizzle ended 4:14 AM
Rain began 4:14 AM
Rain ended 4:27 AM
Relative humidity89 %
Density altitude145 ft. (44 m)
Sea-level pressure100.9 kPa (1009 mB, 29.81 in.Hg)
Max temp last 24 hours18.4°C (65.1°F)
Min temp last 24 hours6.8°C (44.2°F)
Remarks Fully automated report
System requires maintenance
Automated weather observing station with precipitation discriminator
Ceiling
Flight conditions Marginal Visual Meteorological Conditions
Raw dataKADW 280455Z AUTO 18008KT 10SM BKN014 BKN020 14/12 A2979 RMK AO2 RAB0356E07DZB07E14RAB14E27 CIG 013 RWY19L SLP094 P0001 T01350117 401840068 $
An error has occurred. This application may no longer respond until reloaded. Reload 🗙